KPRX/PRX METAR and TAF weather

Enter ICAO airport designator
Station Type Date Time Source
KPRX METAR 2022/01/19 19:56 UTC NOAA

KPRX 191956Z AUTO 33015KT 10SM SCT095 SCT120 16/10 A2992 RMK AO2 SLP144 T01610100


Station Type Date Time Source
KPRX Decoded METAR 2022/01/19 19:56 UTC NOAA

Paris / Cox Field, TX, United States (KPRX) 33-38N 095-27W
Jan 19, 2022 - 02:56 PM EST / 2022.01.19 1956 UTC
Wind: from the NNW (330 degrees) at 17 MPH (15 KT):0
Visibility: 10 mile(s):0
Sky conditions: partly cloudy
Temperature: 61.0 F (16.1 C)
Dew Point: 50.0 F (10.0 C)
Relative Humidity: 67%
Pressure (altimeter): 29.92 in. Hg (1013 hPa)
ob: KPRX 191956Z AUTO 33015KT 10SM SCT095 SCT120 16/10 A2992 RMK AO2 SLP144 T01610100
cycle: 20

Station Type Date Time Source
KPRX TAF UTC NOAA

Error!

Example: see airport list